sensor_id;sensor_type;location;lat;lon;timestamp;temperature;humidity
20489;DHT22;10403;54.092;12.122;2022-08-20T00:01:53;21.20;99.90
20489;DHT22;10403;54.092;12.122;2022-08-20T00:04:21;21.20;99.90
20489;DHT22;10403;54.092;12.122;2022-08-20T00:06:50;21.20;99.90
20489;DHT22;10403;54.092;12.122;2022-08-20T00:09:17;21.20;99.90
20489;DHT22;10403;54.092;12.122;2022-08-20T00:11:44;21.20;99.90
20489;DHT22;10403;54.092;12.122;2022-08-20T00:14:11;21.20;99.90
20489;DHT22;10403;54.092;12.122;2022-08-20T00:16:38;21.20;99.90
20489;DHT22;10403;54.092;12.122;2022-08-20T00:19:07;21.20;99.90
20489;DHT22;10403;54.092;12.122;2022-08-20T00:21:35;21.10;99.90
20489;DHT22;10403;54.092;12.122;2022-08-20T00:24:04;21.10;99.90
20489;DHT22;10403;54.092;12.122;2022-08-20T00:26:32;21.20;99.90
20489;DHT22;10403;54.092;12.122;2022-08-20T00:28:59;21.10;99.90
20489;DHT22;10403;54.092;12.122;2022-08-20T00:31:26;21.10;99.90
20489;DHT22;10403;54.092;12.122;2022-08-20T00:33:54;21.10;99.90
20489;DHT22;10403;54.092;12.122;2022-08-20T00:36:21;21.10;99.90
20489;DHT22;10403;54.092;12.122;2022-08-20T00:38:59;21.10;99.90
20489;DHT22;10403;54.092;12.122;2022-08-20T00:41:32;21.10;99.90
20489;DHT22;10403;54.092;12.122;2022-08-20T00:44:25;21.10;99.90
20489;DHT22;10403;54.092;12.122;2022-08-20T00:46:53;21.10;99.90
20489;DHT22;10403;54.092;12.122;2022-08-20T00:49:28;21.10;99.90
20489;DHT22;10403;54.092;12.122;2022-08-20T00:52:01;21.10;99.90
20489;DHT22;10403;54.092;12.122;2022-08-20T00:54:49;21.10;99.90
20489;DHT22;10403;54.092;12.122;2022-08-20T00:57:30;21.10;99.90
20489;DHT22;10403;54.092;12.122;2022-08-20T01:00:29;21.10;99.90
20489;DHT22;10403;54.092;12.122;2022-08-20T01:03:08;21.10;99.90
20489;DHT22;10403;54.092;12.122;2022-08-20T01:05:39;21.10;99.90
20489;DHT22;10403;54.092;12.122;2022-08-20T01:08:11;21.10;99.90
20489;DHT22;10403;54.092;12.122;2022-08-20T01:10:41;21.10;99.90
20489;DHT22;10403;54.092;12.122;2022-08-20T01:13:14;21.00;99.90
20489;DHT22;10403;54.092;12.122;2022-08-20T01:15:46;21.00;99.90
20489;DHT22;10403;54.092;12.122;2022-08-20T01:18:19;21.00;99.90
20489;DHT22;10403;54.092;12.122;2022-08-20T01:20:58;21.00;99.90
20489;DHT22;10403;54.092;12.122;2022-08-20T01:23:56;21.00;99.90
20489;DHT22;10403;54.092;12.122;2022-08-20T01:26:35;21.00;99.90
20489;DHT22;10403;54.092;12.122;2022-08-20T01:29:13;21.10;99.90
20489;DHT22;10403;54.092;12.122;2022-08-20T01:31:44;21.00;99.90
20489;DHT22;10403;54.092;12.122;2022-08-20T01:34:14;21.00;99.90
20489;DHT22;10403;54.092;12.122;2022-08-20T01:36:49;21.10;99.90
20489;DHT22;10403;54.092;12.122;2022-08-20T01:39:22;21.00;99.90
20489;DHT22;10403;54.092;12.122;2022-08-20T01:45:23;21.00;99.90
20489;DHT22;10403;54.092;12.122;2022-08-20T01:48:14;21.00;99.90
20489;DHT22;10403;54.092;12.122;2022-08-20T01:50:47;21.00;99.90
20489;DHT22;10403;54.092;12.122;2022-08-20T01:53:32;21.00;99.90
20489;DHT22;10403;54.092;12.122;2022-08-20T01:56:06;21.10;99.90
20489;DHT22;10403;54.092;12.122;2022-08-20T01:58:56;21.10;99.90
20489;DHT22;10403;54.092;12.122;2022-08-20T02:01:37;21.10;99.90
20489;DHT22;10403;54.092;12.122;2022-08-20T02:04:13;21.00;99.90
20489;DHT22;10403;54.092;12.122;2022-08-20T02:06:44;21.00;99.90
20489;DHT22;10403;54.092;12.122;2022-08-20T02:09:28;21.00;99.90
20489;DHT22;10403;54.092;12.122;2022-08-20T02:11:57;21.00;99.90
20489;DHT22;10403;54.092;12.122;2022-08-20T02:14:26;21.00;99.90
20489;DHT22;10403;54.092;12.122;2022-08-20T02:16:53;21.00;99.90
20489;DHT22;10403;54.092;12.122;2022-08-20T02:19:34;21.00;99.90
20489;DHT22;10403;54.092;12.122;2022-08-20T02:22:13;21.00;99.90
20489;DHT22;10403;54.092;12.122;2022-08-20T02:24:43;21.00;99.90
20489;DHT22;10403;54.092;12.122;2022-08-20T02:27:11;21.00;99.90
20489;DHT22;10403;54.092;12.122;2022-08-20T02:29:40;21.00;99.90
20489;DHT22;10403;54.092;12.122;2022-08-20T02:32:08;21.00;99.90
20489;DHT22;10403;54.092;12.122;2022-08-20T02:34:55;21.00;99.90
20489;DHT22;10403;54.092;12.122;2022-08-20T02:37:22;21.00;99.90
20489;DHT22;10403;54.092;12.122;2022-08-20T02:39:49;21.00;99.90
20489;DHT22;10403;54.092;12.122;2022-08-20T02:42:35;21.00;99.90
20489;DHT22;10403;54.092;12.122;2022-08-20T02:45:12;21.00;99.90
20489;DHT22;10403;54.092;12.122;2022-08-20T02:47:45;21.00;99.90
20489;DHT22;10403;54.092;12.122;2022-08-20T02:50:15;21.00;99.90
20489;DHT22;10403;54.092;12.122;2022-08-20T02:52:44;21.00;99.90
20489;DHT22;10403;54.092;12.122;2022-08-20T02:55:18;21.00;99.90
20489;DHT22;10403;54.092;12.122;2022-08-20T02:57:58;21.00;99.90
20489;DHT22;10403;54.092;12.122;2022-08-20T03:00:29;21.00;99.90
20489;DHT22;10403;54.092;12.122;2022-08-20T03:03:06;21.00;99.90
20489;DHT22;10403;54.092;12.122;2022-08-20T03:05:35;21.00;99.90
20489;DHT22;10403;54.092;12.122;2022-08-20T03:08:06;21.00;99.90
20489;DHT22;10403;54.092;12.122;2022-08-20T03:10:35;21.00;99.90
20489;DHT22;10403;54.092;12.122;2022-08-20T03:13:05;21.00;99.90
20489;DHT22;10403;54.092;12.122;2022-08-20T03:15:38;20.90;99.90
20489;DHT22;10403;54.092;12.122;2022-08-20T03:18:08;20.90;99.90
20489;DHT22;10403;54.092;12.122;2022-08-20T03:20:37;20.90;99.90
20489;DHT22;10403;54.092;12.122;2022-08-20T03:23:05;20.90;99.90
20489;DHT22;10403;54.092;12.122;2022-08-20T03:25:32;20.90;99.90
20489;DHT22;10403;54.092;12.122;2022-08-20T03:28:00;20.90;99.90
20489;DHT22;10403;54.092;12.122;2022-08-20T03:30:28;20.90;99.90
20489;DHT22;10403;54.092;12.122;2022-08-20T03:32:56;20.90;99.90
20489;DHT22;10403;54.092;12.122;2022-08-20T03:35:25;20.90;99.90
20489;DHT22;10403;54.092;12.122;2022-08-20T03:37:53;20.90;99.90
20489;DHT22;10403;54.092;12.122;2022-08-20T03:40:25;20.90;99.90
20489;DHT22;10403;54.092;12.122;2022-08-20T03:42:57;20.90;99.90
20489;DHT22;10403;54.092;12.122;2022-08-20T03:45:26;20.90;99.90
20489;DHT22;10403;54.092;12.122;2022-08-20T03:47:54;20.80;99.90
20489;DHT22;10403;54.092;12.122;2022-08-20T03:50:24;20.80;99.90
20489;DHT22;10403;54.092;12.122;2022-08-20T03:52:54;20.80;99.90
20489;DHT22;10403;54.092;12.122;2022-08-20T03:55:24;20.80;99.90
20489;DHT22;10403;54.092;12.122;2022-08-20T03:57:56;20.80;99.90
20489;DHT22;10403;54.092;12.122;2022-08-20T04:00:29;20.80;99.90
20489;DHT22;10403;54.092;12.122;2022-08-20T04:02:58;20.80;99.90
20489;DHT22;10403;54.092;12.122;2022-08-20T04:05:29;20.80;99.90
20489;DHT22;10403;54.092;12.122;2022-08-20T04:07:59;20.80;99.90
20489;DHT22;10403;54.092;12.122;2022-08-20T04:10:30;20.80;99.90
20489;DHT22;10403;54.092;12.122;2022-08-20T04:12:58;20.70;99.90
20489;DHT22;10403;54.092;12.122;2022-08-20T04:15:27;20.70;99.90
20489;DHT22;10403;54.092;12.122;2022-08-20T04:17:54;20.70;99.90
20489;DHT22;10403;54.092;12.122;2022-08-20T04:20:23;20.70;99.90
20489;DHT22;10403;54.092;12.122;2022-08-20T04:22:55;20.70;99.90
20489;DHT22;10403;54.092;12.122;2022-08-20T04:25:26;20.70;99.90
20489;DHT22;10403;54.092;12.122;2022-08-20T04:27:57;20.70;99.90
20489;DHT22;10403;54.092;12.122;2022-08-20T04:30:26;20.70;99.90
20489;DHT22;10403;54.092;12.122;2022-08-20T04:32:55;20.70;99.90
20489;DHT22;10403;54.092;12.122;2022-08-20T04:35:22;20.70;99.90
20489;DHT22;10403;54.092;12.122;2022-08-20T04:37:58;20.70;99.90
20489;DHT22;10403;54.092;12.122;2022-08-20T04:40:27;20.70;99.90
20489;DHT22;10403;54.092;12.122;2022-08-20T04:43:13;20.70;99.90
20489;DHT22;10403;54.092;12.122;2022-08-20T04:45:42;20.70;99.90
20489;DHT22;10403;54.092;12.122;2022-08-20T04:48:10;20.70;99.90
20489;DHT22;10403;54.092;12.122;2022-08-20T04:50:43;20.70;99.90
20489;DHT22;10403;54.092;12.122;2022-08-20T04:53:15;20.70;99.90
20489;DHT22;10403;54.092;12.122;2022-08-20T04:55:51;20.70;99.90
20489;DHT22;10403;54.092;12.122;2022-08-20T04:58:31;20.70;99.90
20489;DHT22;10403;54.092;12.122;2022-08-20T05:01:04;20.70;99.90
20489;DHT22;10403;54.092;12.122;2022-08-20T05:03:34;20.70;99.90
20489;DHT22;10403;54.092;12.122;2022-08-20T05:06:05;20.70;99.90
20489;DHT22;10403;54.092;12.122;2022-08-20T05:08:35;20.70;99.90
20489;DHT22;10403;54.092;12.122;2022-08-20T05:11:02;20.80;99.90
20489;DHT22;10403;54.092;12.122;2022-08-20T05:13:50;20.80;99.90
20489;DHT22;10403;54.092;12.122;2022-08-20T05:16:19;20.80;99.90
20489;DHT22;10403;54.092;12.122;2022-08-20T05:18:46;20.80;99.90
20489;DHT22;10403;54.092;12.122;2022-08-20T05:21:19;20.80;99.90
20489;DHT22;10403;54.092;12.122;2022-08-20T05:23:47;20.90;99.90
20489;DHT22;10403;54.092;12.122;2022-08-20T05:26:16;20.90;99.90
20489;DHT22;10403;54.092;12.122;2022-08-20T05:28:46;20.90;99.90
20489;DHT22;10403;54.092;12.122;2022-08-20T05:31:27;20.90;99.90
20489;DHT22;10403;54.092;12.122;2022-08-20T05:34:03;21.00;99.90
20489;DHT22;10403;54.092;12.122;2022-08-20T05:36:42;21.00;99.90
20489;DHT22;10403;54.092;12.122;2022-08-20T05:39:16;21.00;99.90
20489;DHT22;10403;54.092;12.122;2022-08-20T05:41:45;21.10;99.90
20489;DHT22;10403;54.092;12.122;2022-08-20T05:44:12;21.10;99.90
20489;DHT22;10403;54.092;12.122;2022-08-20T05:46:42;21.20;99.90
20489;DHT22;10403;54.092;12.122;2022-08-20T05:49:13;21.20;99.90
20489;DHT22;10403;54.092;12.122;2022-08-20T05:51:43;21.30;99.90
20489;DHT22;10403;54.092;12.122;2022-08-20T05:54:10;21.30;99.90
20489;DHT22;10403;54.092;12.122;2022-08-20T05:56:39;21.30;99.90
20489;DHT22;10403;54.092;12.122;2022-08-20T05:59:08;21.40;99.90
20489;DHT22;10403;54.092;12.122;2022-08-20T06:01:37;21.40;99.90
20489;DHT22;10403;54.092;12.122;2022-08-20T06:04:06;21.40;99.90
20489;DHT22;10403;54.092;12.122;2022-08-20T06:06:56;21.50;99.90
20489;DHT22;10403;54.092;12.122;2022-08-20T06:09:29;21.50;99.90
20489;DHT22;10403;54.092;12.122;2022-08-20T06:12:01;21.50;99.90
20489;DHT22;10403;54.092;12.122;2022-08-20T06:14:32;21.60;99.90
20489;DHT22;10403;54.092;12.122;2022-08-20T06:17:12;21.60;99.90
20489;DHT22;10403;54.092;12.122;2022-08-20T06:19:42;21.60;99.90
20489;DHT22;10403;54.092;12.122;2022-08-20T06:22:13;21.60;99.90
20489;DHT22;10403;54.092;12.122;2022-08-20T06:24:52;21.70;99.90
20489;DHT22;10403;54.092;12.122;2022-08-20T06:27:20;21.80;99.90
20489;DHT22;10403;54.092;12.122;2022-08-20T06:29:48;21.90;99.90
20489;DHT22;10403;54.092;12.122;2022-08-20T06:32:16;22.00;99.90
20489;DHT22;10403;54.092;12.122;2022-08-20T06:34:54;22.10;99.90
20489;DHT22;10403;54.092;12.122;2022-08-20T06:37:25;22.20;99.90
20489;DHT22;10403;54.092;12.122;2022-08-20T06:40:07;22.20;99.90
20489;DHT22;10403;54.092;12.122;2022-08-20T06:42:39;22.10;99.90
20489;DHT22;10403;54.092;12.122;2022-08-20T06:45:17;22.10;99.90
20489;DHT22;10403;54.092;12.122;2022-08-20T06:47:51;22.10;99.90
20489;DHT22;10403;54.092;12.122;2022-08-20T06:50:25;22.10;99.90
20489;DHT22;10403;54.092;12.122;2022-08-20T06:52:57;22.10;99.90
20489;DHT22;10403;54.092;12.122;2022-08-20T06:55:25;22.20;99.90
20489;DHT22;10403;54.092;12.122;2022-08-20T07:00:26;22.30;99.90
20489;DHT22;10403;54.092;12.122;2022-08-20T07:02:54;22.30;99.90
20489;DHT22;10403;54.092;12.122;2022-08-20T07:05:21;22.30;99.90
20489;DHT22;10403;54.092;12.122;2022-08-20T07:07:48;22.30;99.90
20489;DHT22;10403;54.092;12.122;2022-08-20T07:10:17;22.40;99.90
20489;DHT22;10403;54.092;12.122;2022-08-20T07:12:46;22.40;99.90
20489;DHT22;10403;54.092;12.122;2022-08-20T07:15:17;22.40;99.90
20489;DHT22;10403;54.092;12.122;2022-08-20T07:17:58;22.40;99.90
20489;DHT22;10403;54.092;12.122;2022-08-20T07:20:28;22.30;99.90
20489;DHT22;10403;54.092;12.122;2022-08-20T07:22:57;22.30;99.90
20489;DHT22;10403;54.092;12.122;2022-08-20T07:25:27;22.30;99.90
20489;DHT22;10403;54.092;12.122;2022-08-20T07:28:08;22.40;99.90
20489;DHT22;10403;54.092;12.122;2022-08-20T07:30:39;22.40;99.90
20489;DHT22;10403;54.092;12.122;2022-08-20T07:33:38;22.40;99.90
20489;DHT22;10403;54.092;12.122;2022-08-20T07:36:07;22.40;99.90
20489;DHT22;10403;54.092;12.122;2022-08-20T07:38:36;22.40;99.90
20489;DHT22;10403;54.092;12.122;2022-08-20T07:41:09;22.50;99.90
20489;DHT22;10403;54.092;12.122;2022-08-20T07:43:41;22.50;99.90
20489;DHT22;10403;54.092;12.122;2022-08-20T07:46:10;22.50;99.90
20489;DHT22;10403;54.092;12.122;2022-08-20T07:48:41;22.40;99.90
20489;DHT22;10403;54.092;12.122;2022-08-20T07:51:13;22.30;99.90
20489;DHT22;10403;54.092;12.122;2022-08-20T07:53:44;22.40;99.90
20489;DHT22;10403;54.092;12.122;2022-08-20T07:56:18;22.40;99.90
20489;DHT22;10403;54.092;12.122;2022-08-20T07:58:50;22.40;99.90
20489;DHT22;10403;54.092;12.122;2022-08-20T08:01:22;22.50;99.90
20489;DHT22;10403;54.092;12.122;2022-08-20T08:03:54;22.50;99.90
20489;DHT22;10403;54.092;12.122;2022-08-20T08:06:23;22.60;99.90
20489;DHT22;10403;54.092;12.122;2022-08-20T08:09:08;22.60;99.90
20489;DHT22;10403;54.092;12.122;2022-08-20T08:11:39;22.70;99.90
20489;DHT22;10403;54.092;12.122;2022-08-20T08:14:17;22.60;99.90
20489;DHT22;10403;54.092;12.122;2022-08-20T08:16:49;22.60;99.90
20489;DHT22;10403;54.092;12.122;2022-08-20T08:19:17;22.60;99.90
20489;DHT22;10403;54.092;12.122;2022-08-20T08:21:45;22.60;99.90
20489;DHT22;10403;54.092;12.122;2022-08-20T08:24:12;22.60;99.90
20489;DHT22;10403;54.092;12.122;2022-08-20T08:26:47;22.60;99.90
20489;DHT22;10403;54.092;12.122;2022-08-20T08:29:16;22.60;99.90
20489;DHT22;10403;54.092;12.122;2022-08-20T08:31:43;22.60;99.90
20489;DHT22;10403;54.092;12.122;2022-08-20T08:34:10;22.70;99.90
20489;DHT22;10403;54.092;12.122;2022-08-20T08:36:39;22.70;99.90
20489;DHT22;10403;54.092;12.122;2022-08-20T08:39:06;22.80;99.90
20489;DHT22;10403;54.092;12.122;2022-08-20T08:41:38;22.80;99.90
20489;DHT22;10403;54.092;12.122;2022-08-20T08:44:33;22.90;99.90
20489;DHT22;10403;54.092;12.122;2022-08-20T08:47:15;23.00;99.90
20489;DHT22;10403;54.092;12.122;2022-08-20T08:49:47;23.10;99.90
20489;DHT22;10403;54.092;12.122;2022-08-20T08:52:27;23.20;99.90
20489;DHT22;10403;54.092;12.122;2022-08-20T08:55:00;23.30;99.80
20489;DHT22;10403;54.092;12.122;2022-08-20T08:57:31;23.20;99.70
20489;DHT22;10403;54.092;12.122;2022-08-20T09:00:01;23.20;99.50
20489;DHT22;10403;54.092;12.122;2022-08-20T09:02:33;23.10;99.60
20489;DHT22;10403;54.092;12.122;2022-08-20T09:05:07;23.10;99.50
20489;DHT22;10403;54.092;12.122;2022-08-20T09:07:42;23.00;99.50
20489;DHT22;10403;54.092;12.122;2022-08-20T09:10:13;22.90;99.60
20489;DHT22;10403;54.092;12.122;2022-08-20T09:12:40;22.90;99.50
20489;DHT22;10403;54.092;12.122;2022-08-20T09:15:13;22.80;99.40
20489;DHT22;10403;54.092;12.122;2022-08-20T09:17:41;22.80;99.60
20489;DHT22;10403;54.092;12.122;2022-08-20T09:20:08;22.80;99.60
20489;DHT22;10403;54.092;12.122;2022-08-20T09:22:36;22.90;99.60
20489;DHT22;10403;54.092;12.122;2022-08-20T09:25:03;22.90;99.60
20489;DHT22;10403;54.092;12.122;2022-08-20T09:27:31;22.90;99.70
20489;DHT22;10403;54.092;12.122;2022-08-20T09:29:58;23.00;99.70
20489;DHT22;10403;54.092;12.122;2022-08-20T09:32:26;23.00;99.60
20489;DHT22;10403;54.092;12.122;2022-08-20T09:34:54;22.90;99.50
20489;DHT22;10403;54.092;12.122;2022-08-20T09:37:23;23.00;99.70
20489;DHT22;10403;54.092;12.122;2022-08-20T09:39:53;23.00;99.60
20489;DHT22;10403;54.092;12.122;2022-08-20T09:42:25;23.10;99.60
20489;DHT22;10403;54.092;12.122;2022-08-20T09:44:54;23.30;99.60
20489;DHT22;10403;54.092;12.122;2022-08-20T09:47:22;23.40;99.30
20489;DHT22;10403;54.092;12.122;2022-08-20T09:49:51;23.50;99.00
20489;DHT22;10403;54.092;12.122;2022-08-20T09:54:51;23.40;98.60
20489;DHT22;10403;54.092;12.122;2022-08-20T09:57:23;23.40;98.70
20489;DHT22;10403;54.092;12.122;2022-08-20T09:59:57;23.40;98.70
20489;DHT22;10403;54.092;12.122;2022-08-20T10:02:27;23.40;98.60
20489;DHT22;10403;54.092;12.122;2022-08-20T10:04:54;23.40;98.50
20489;DHT22;10403;54.092;12.122;2022-08-20T10:07:23;23.40;98.50
20489;DHT22;10403;54.092;12.122;2022-08-20T10:09:50;23.50;98.50
20489;DHT22;10403;54.092;12.122;2022-08-20T10:12:17;23.50;98.50
20489;DHT22;10403;54.092;12.122;2022-08-20T10:14:44;23.60;98.50
20489;DHT22;10403;54.092;12.122;2022-08-20T10:17:11;23.70;98.30
20489;DHT22;10403;54.092;12.122;2022-08-20T10:19:38;23.80;98.00
20489;DHT22;10403;54.092;12.122;2022-08-20T10:22:05;23.90;97.80
20489;DHT22;10403;54.092;12.122;2022-08-20T10:24:33;23.90;97.80
20489;DHT22;10403;54.092;12.122;2022-08-20T10:27:01;23.90;97.70
20489;DHT22;10403;54.092;12.122;2022-08-20T10:29:29;23.90;97.70
20489;DHT22;10403;54.092;12.122;2022-08-20T10:32:07;23.80;97.70
20489;DHT22;10403;54.092;12.122;2022-08-20T10:34:41;23.70;97.90
20489;DHT22;10403;54.092;12.122;2022-08-20T10:37:14;23.70;98.00
20489;DHT22;10403;54.092;12.122;2022-08-20T10:39:44;23.80;97.90
20489;DHT22;10403;54.092;12.122;2022-08-20T10:42:12;23.70;97.70
20489;DHT22;10403;54.092;12.122;2022-08-20T10:44:39;23.60;97.80
20489;DHT22;10403;54.092;12.122;2022-08-20T10:47:15;23.70;98.10
20489;DHT22;10403;54.092;12.122;2022-08-20T10:49:55;23.70;98.00
20489;DHT22;10403;54.092;12.122;2022-08-20T10:52:25;23.90;97.90
20489;DHT22;10403;54.092;12.122;2022-08-20T10:54:52;24.00;97.70
20489;DHT22;10403;54.092;12.122;2022-08-20T10:57:27;24.10;97.50
20489;DHT22;10403;54.092;12.122;2022-08-20T10:59:58;24.10;97.10
20489;DHT22;10403;54.092;12.122;2022-08-20T11:02:26;24.20;97.10
20489;DHT22;10403;54.092;12.122;2022-08-20T11:04:55;24.30;96.90
20489;DHT22;10403;54.092;12.122;2022-08-20T11:10:20;24.30;96.30
20489;DHT22;10403;54.092;12.122;2022-08-20T11:12:48;24.30;96.30
20489;DHT22;10403;54.092;12.122;2022-08-20T11:15:15;24.30;96.20
20489;DHT22;10403;54.092;12.122;2022-08-20T11:17:43;24.30;96.10
20489;DHT22;10403;54.092;12.122;2022-08-20T11:20:15;24.30;95.80
20489;DHT22;10403;54.092;12.122;2022-08-20T11:22:43;24.20;95.80
20489;DHT22;10403;54.092;12.122;2022-08-20T11:25:11;24.20;95.90
20489;DHT22;10403;54.092;12.122;2022-08-20T11:27:41;24.10;95.90
20489;DHT22;10403;54.092;12.122;2022-08-20T11:30:15;24.00;96.20
20489;DHT22;10403;54.092;12.122;2022-08-20T11:32:47;23.90;96.20
20489;DHT22;10403;54.092;12.122;2022-08-20T11:35:15;23.90;96.20
20489;DHT22;10403;54.092;12.122;2022-08-20T11:38:03;23.90;96.40
20489;DHT22;10403;54.092;12.122;2022-08-20T11:40:30;23.90;96.40
20489;DHT22;10403;54.092;12.122;2022-08-20T11:42:57;23.80;96.30
20489;DHT22;10403;54.092;12.122;2022-08-20T11:45:41;23.80;96.30
20489;DHT22;10403;54.092;12.122;2022-08-20T11:48:09;23.90;96.50
20489;DHT22;10403;54.092;12.122;2022-08-20T11:50:36;24.00;96.60
20489;DHT22;10403;54.092;12.122;2022-08-20T11:53:03;24.10;96.40
20489;DHT22;10403;54.092;12.122;2022-08-20T11:55:30;24.20;96.10
20489;DHT22;10403;54.092;12.122;2022-08-20T11:57:58;24.20;95.90
20489;DHT22;10403;54.092;12.122;2022-08-20T12:00:46;24.20;96.10
20489;DHT22;10403;54.092;12.122;2022-08-20T12:03:14;24.20;95.70
20489;DHT22;10403;54.092;12.122;2022-08-20T12:05:43;24.10;95.70
20489;DHT22;10403;54.092;12.122;2022-08-20T12:08:13;24.00;96.00
20489;DHT22;10403;54.092;12.122;2022-08-20T12:10:59;24.00;95.90
20489;DHT22;10403;54.092;12.122;2022-08-20T12:13:30;24.00;95.90
20489;DHT22;10403;54.092;12.122;2022-08-20T12:16:16;24.10;96.00
20489;DHT22;10403;54.092;12.122;2022-08-20T12:18:45;24.10;95.80
20489;DHT22;10403;54.092;12.122;2022-08-20T12:21:13;24.20;95.70
20489;DHT22;10403;54.092;12.122;2022-08-20T12:23:40;24.10;95.60
20489;DHT22;10403;54.092;12.122;2022-08-20T12:26:08;24.10;95.50
20489;DHT22;10403;54.092;12.122;2022-08-20T12:28:35;24.20;95.40
20489;DHT22;10403;54.092;12.122;2022-08-20T12:31:03;24.20;95.30
20489;DHT22;10403;54.092;12.122;2022-08-20T12:33:30;24.30;95.00
20489;DHT22;10403;54.092;12.122;2022-08-20T12:35:57;24.40;95.00
20489;DHT22;10403;54.092;12.122;2022-08-20T12:38:25;24.50;94.90
20489;DHT22;10403;54.092;12.122;2022-08-20T12:40:52;24.60;94.30
20489;DHT22;10403;54.092;12.122;2022-08-20T12:43:19;24.50;93.70
20489;DHT22;10403;54.092;12.122;2022-08-20T12:45:50;24.50;93.60
20489;DHT22;10403;54.092;12.122;2022-08-20T12:48:18;24.50;93.30
20489;DHT22;10403;54.092;12.122;2022-08-20T12:50:46;24.50;93.10
20489;DHT22;10403;54.092;12.122;2022-08-20T12:53:15;24.50;92.80
20489;DHT22;10403;54.092;12.122;2022-08-20T12:55:43;24.40;91.90
20489;DHT22;10403;54.092;12.122;2022-08-20T12:58:10;24.40;91.70
20489;DHT22;10403;54.092;12.122;2022-08-20T13:00:40;24.40;91.70
20489;DHT22;10403;54.092;12.122;2022-08-20T13:03:20;24.50;91.00
20489;DHT22;10403;54.092;12.122;2022-08-20T13:05:47;24.40;90.80
20489;DHT22;10403;54.092;12.122;2022-08-20T13:08:15;24.40;90.30
20489;DHT22;10403;54.092;12.122;2022-08-20T13:10:44;24.40;90.20
20489;DHT22;10403;54.092;12.122;2022-08-20T13:13:14;24.40;90.20
20489;DHT22;10403;54.092;12.122;2022-08-20T13:15:46;24.40;89.40
20489;DHT22;10403;54.092;12.122;2022-08-20T13:18:15;24.50;89.60
20489;DHT22;10403;54.092;12.122;2022-08-20T13:20:42;24.40;87.90
20489;DHT22;10403;54.092;12.122;2022-08-20T13:23:10;24.30;87.00
20489;DHT22;10403;54.092;12.122;2022-08-20T13:25:37;24.30;86.70
20489;DHT22;10403;54.092;12.122;2022-08-20T13:28:04;24.30;87.10
20489;DHT22;10403;54.092;12.122;2022-08-20T13:30:34;24.30;87.80
20489;DHT22;10403;54.092;12.122;2022-08-20T13:33:04;24.30;87.70
20489;DHT22;10403;54.092;12.122;2022-08-20T13:35:31;24.30;87.20
20489;DHT22;10403;54.092;12.122;2022-08-20T13:37:58;24.20;85.10
20489;DHT22;10403;54.092;12.122;2022-08-20T13:40:26;24.10;84.50
20489;DHT22;10403;54.092;12.122;2022-08-20T13:42:54;24.10;84.50
20489;DHT22;10403;54.092;12.122;2022-08-20T13:45:21;24.10;84.90
20489;DHT22;10403;54.092;12.122;2022-08-20T13:47:52;24.10;85.20
20489;DHT22;10403;54.092;12.122;2022-08-20T13:50:23;24.10;85.10
20489;DHT22;10403;54.092;12.122;2022-08-20T13:52:51;24.00;84.80
20489;DHT22;10403;54.092;12.122;2022-08-20T13:55:20;23.90;85.60
20489;DHT22;10403;54.092;12.122;2022-08-20T13:57:49;23.90;86.30
20489;DHT22;10403;54.092;12.122;2022-08-20T14:00:22;23.90;86.70
20489;DHT22;10403;54.092;12.122;2022-08-20T14:02:59;23.90;87.20
20489;DHT22;10403;54.092;12.122;2022-08-20T14:05:27;23.90;87.50
20489;DHT22;10403;54.092;12.122;2022-08-20T14:08:12;23.90;88.00
20489;DHT22;10403;54.092;12.122;2022-08-20T14:10:42;23.90;88.40
20489;DHT22;10403;54.092;12.122;2022-08-20T14:13:12;24.00;88.70
20489;DHT22;10403;54.092;12.122;2022-08-20T14:15:42;24.00;88.90
20489;DHT22;10403;54.092;12.122;2022-08-20T14:18:11;24.00;89.30
20489;DHT22;10403;54.092;12.122;2022-08-20T14:20:41;24.00;89.30
20489;DHT22;10403;54.092;12.122;2022-08-20T14:23:11;23.90;89.70
20489;DHT22;10403;54.092;12.122;2022-08-20T14:25:40;24.00;90.10
20489;DHT22;10403;54.092;12.122;2022-08-20T14:28:19;24.00;90.30
20489;DHT22;10403;54.092;12.122;2022-08-20T14:30:49;24.10;90.40
20489;DHT22;10403;54.092;12.122;2022-08-20T14:33:20;24.10;90.40
20489;DHT22;10403;54.092;12.122;2022-08-20T14:35:48;24.10;90.30
20489;DHT22;10403;54.092;12.122;2022-08-20T14:38:16;24.00;90.30
20489;DHT22;10403;54.092;12.122;2022-08-20T14:40:43;24.00;90.20
20489;DHT22;10403;54.092;12.122;2022-08-20T14:43:10;24.00;90.10
20489;DHT22;10403;54.092;12.122;2022-08-20T14:45:37;23.90;90.30
20489;DHT22;10403;54.092;12.122;2022-08-20T14:48:06;23.90;90.50
20489;DHT22;10403;54.092;12.122;2022-08-20T14:50:36;23.80;90.60
20489;DHT22;10403;54.092;12.122;2022-08-20T14:53:04;23.80;90.70
20489;DHT22;10403;54.092;12.122;2022-08-20T14:55:34;23.80;90.60
20489;DHT22;10403;54.092;12.122;2022-08-20T14:58:08;23.80;90.40
20489;DHT22;10403;54.092;12.122;2022-08-20T15:00:37;23.80;90.40
20489;DHT22;10403;54.092;12.122;2022-08-20T15:03:05;23.80;90.30
20489;DHT22;10403;54.092;12.122;2022-08-20T15:05:33;23.80;90.10
20489;DHT22;10403;54.092;12.122;2022-08-20T15:08:05;23.80;89.80
20489;DHT22;10403;54.092;12.122;2022-08-20T15:10:36;23.70;89.40
20489;DHT22;10403;54.092;12.122;2022-08-20T15:13:04;23.70;89.50
20489;DHT22;10403;54.092;12.122;2022-08-20T15:15:31;23.60;89.50
20489;DHT22;10403;54.092;12.122;2022-08-20T15:17:59;23.60;89.50
20489;DHT22;10403;54.092;12.122;2022-08-20T15:20:28;23.50;89.40
20489;DHT22;10403;54.092;12.122;2022-08-20T15:22:57;23.50;89.40
20489;DHT22;10403;54.092;12.122;2022-08-20T15:25:28;23.50;89.40
20489;DHT22;10403;54.092;12.122;2022-08-20T15:28:06;23.50;89.40
20489;DHT22;10403;54.092;12.122;2022-08-20T15:30:37;23.50;89.20
20489;DHT22;10403;54.092;12.122;2022-08-20T15:33:06;23.50;89.80
20489;DHT22;10403;54.092;12.122;2022-08-20T15:35:34;23.50;89.10
20489;DHT22;10403;54.092;12.122;2022-08-20T15:38:02;23.50;89.30
20489;DHT22;10403;54.092;12.122;2022-08-20T15:40:30;23.50;89.30
20489;DHT22;10403;54.092;12.122;2022-08-20T15:43:00;23.40;89.40
20489;DHT22;10403;54.092;12.122;2022-08-20T15:45:28;23.50;89.70
20489;DHT22;10403;54.092;12.122;2022-08-20T15:48:11;23.60;89.80
20489;DHT22;10403;54.092;12.122;2022-08-20T16:09:08;23.50;90.00
20489;DHT22;10403;54.092;12.122;2022-08-20T16:14:43;23.40;90.00